sensor_id;sensor_type;location;lat;lon;timestamp;temperature;humidity
58519;DHT22;44310;48.106;12.008;2023-02-01T00:01:22;13.90;81.40
58519;DHT22;44310;48.106;12.008;2023-02-01T00:03:49;14.00;81.60
58519;DHT22;44310;48.106;12.008;2023-02-01T00:06:16;13.90;81.20
58519;DHT22;44310;48.106;12.008;2023-02-01T00:08:43;14.10;81.40
58519;DHT22;44310;48.106;12.008;2023-02-01T00:11:11;13.90;81.10
58519;DHT22;44310;48.106;12.008;2023-02-01T00:13:41;13.90;81.20
58519;DHT22;44310;48.106;12.008;2023-02-01T00:16:11;13.90;81.30
58519;DHT22;44310;48.106;12.008;2023-02-01T00:18:48;13.90;81.30
58519;DHT22;44310;48.106;12.008;2023-02-01T00:21:18;13.50;81.10
58519;DHT22;44310;48.106;12.008;2023-02-01T00:23:45;13.80;81.20
58519;DHT22;44310;48.106;12.008;2023-02-01T00:26:40;13.90;81.20
58519;DHT22;44310;48.106;12.008;2023-02-01T00:29:19;13.90;81.20
58519;DHT22;44310;48.106;12.008;2023-02-01T00:31:49;13.80;81.20
58519;DHT22;44310;48.106;12.008;2023-02-01T00:34:17;13.80;81.80
58519;DHT22;44310;48.106;12.008;2023-02-01T00:36:45;13.90;82.30
58519;DHT22;44310;48.106;12.008;2023-02-01T00:39:12;13.90;82.40
58519;DHT22;44310;48.106;12.008;2023-02-01T00:41:40;13.90;82.40
58519;DHT22;44310;48.106;12.008;2023-02-01T00:44:07;13.90;82.20
58519;DHT22;44310;48.106;12.008;2023-02-01T00:46:35;13.90;82.10
58519;DHT22;44310;48.106;12.008;2023-02-01T00:49:02;13.90;82.00
58519;DHT22;44310;48.106;12.008;2023-02-01T00:51:30;13.90;82.00
58519;DHT22;44310;48.106;12.008;2023-02-01T00:53:57;13.90;81.90
58519;DHT22;44310;48.106;12.008;2023-02-01T00:56:24;13.90;81.90
58519;DHT22;44310;48.106;12.008;2023-02-01T00:58:51;13.90;81.70
58519;DHT22;44310;48.106;12.008;2023-02-01T01:01:20;13.60;81.50
58519;DHT22;44310;48.106;12.008;2023-02-01T01:03:50;13.80;81.50
58519;DHT22;44310;48.106;12.008;2023-02-01T01:06:29;13.90;82.20
58519;DHT22;44310;48.106;12.008;2023-02-01T01:08:59;13.80;81.20
58519;DHT22;44310;48.106;12.008;2023-02-01T01:11:29;13.80;81.20
58519;DHT22;44310;48.106;12.008;2023-02-01T01:13:57;13.90;81.10
58519;DHT22;44310;48.106;12.008;2023-02-01T01:16:26;13.90;81.10
58519;DHT22;44310;48.106;12.008;2023-02-01T01:18:54;13.80;81.00
58519;DHT22;44310;48.106;12.008;2023-02-01T01:21:21;13.80;80.90
58519;DHT22;44310;48.106;12.008;2023-02-01T01:23:49;13.80;80.80
58519;DHT22;44310;48.106;12.008;2023-02-01T01:26:19;13.80;80.70
58519;DHT22;44310;48.106;12.008;2023-02-01T01:28:46;13.80;81.00
58519;DHT22;44310;48.106;12.008;2023-02-01T01:31:15;13.90;81.10
58519;DHT22;44310;48.106;12.008;2023-02-01T01:33:43;13.90;81.50
58519;DHT22;44310;48.106;12.008;2023-02-01T01:36:11;13.70;81.30
58519;DHT22;44310;48.106;12.008;2023-02-01T01:38:40;13.50;81.00
58519;DHT22;44310;48.106;12.008;2023-02-01T01:41:08;13.90;81.30
58519;DHT22;44310;48.106;12.008;2023-02-01T01:51:38;13.80;81.50
58519;DHT22;44310;48.106;12.008;2023-02-01T01:54:13;14.20;81.80
58519;DHT22;44310;48.106;12.008;2023-02-01T01:56:42;13.80;81.50
58519;DHT22;44310;48.106;12.008;2023-02-01T01:59:10;14.40;81.80
58519;DHT22;44310;48.106;12.008;2023-02-01T02:01:38;13.80;81.60
58519;DHT22;44310;48.106;12.008;2023-02-01T02:04:05;13.80;82.60
58519;DHT22;44310;48.106;12.008;2023-02-01T02:06:43;13.90;82.80
58519;DHT22;44310;48.106;12.008;2023-02-01T02:09:15;13.80;83.30
58519;DHT22;44310;48.106;12.008;2023-02-01T02:11:43;13.90;83.70
58519;DHT22;44310;48.106;12.008;2023-02-01T02:14:13;14.00;83.50
58519;DHT22;44310;48.106;12.008;2023-02-01T02:17:03;13.90;83.60
58519;DHT22;44310;48.106;12.008;2023-02-01T02:26:36;14.00;84.00
58519;DHT22;44310;48.106;12.008;2023-02-01T02:34:51;14.00;84.10
58519;DHT22;44310;48.106;12.008;2023-02-01T02:40:32;14.00;84.10
58519;DHT22;44310;48.106;12.008;2023-02-01T02:43:20;13.90;83.90
58519;DHT22;44310;48.106;12.008;2023-02-01T02:46:25;13.90;83.90
58519;DHT22;44310;48.106;12.008;2023-02-01T02:49:39;13.90;83.90
58519;DHT22;44310;48.106;12.008;2023-02-01T02:52:18;13.80;83.80
58519;DHT22;44310;48.106;12.008;2023-02-01T02:55:07;13.80;83.80
58519;DHT22;44310;48.106;12.008;2023-02-01T02:57:40;13.80;83.80
58519;DHT22;44310;48.106;12.008;2023-02-01T03:00:30;13.80;83.80
58519;DHT22;44310;48.106;12.008;2023-02-01T03:03:17;13.80;83.90
58519;DHT22;44310;48.106;12.008;2023-02-01T03:06:03;13.80;83.90
58519;DHT22;44310;48.106;12.008;2023-02-01T03:08:31;13.90;84.50
58519;DHT22;44310;48.106;12.008;2023-02-01T03:11:09;13.90;84.70
58519;DHT22;44310;48.106;12.008;2023-02-01T03:16:24;13.90;84.10
58519;DHT22;44310;48.106;12.008;2023-02-01T03:19:09;14.00;83.90
58519;DHT22;44310;48.106;12.008;2023-02-01T03:21:50;13.90;83.70
58519;DHT22;44310;48.106;12.008;2023-02-01T03:24:22;13.90;83.60
58519;DHT22;44310;48.106;12.008;2023-02-01T03:26:55;14.00;83.50
58519;DHT22;44310;48.106;12.008;2023-02-01T03:29:26;13.90;83.30
58519;DHT22;44310;48.106;12.008;2023-02-01T03:31:53;13.90;83.70
58519;DHT22;44310;48.106;12.008;2023-02-01T03:34:21;13.90;83.20
58519;DHT22;44310;48.106;12.008;2023-02-01T03:36:52;13.90;83.00
58519;DHT22;44310;48.106;12.008;2023-02-01T03:39:27;13.90;82.90
58519;DHT22;44310;48.106;12.008;2023-02-01T03:41:59;13.70;82.60
58519;DHT22;44310;48.106;12.008;2023-02-01T03:44:50;13.90;82.60
58519;DHT22;44310;48.106;12.008;2023-02-01T03:47:29;13.90;82.50
58519;DHT22;44310;48.106;12.008;2023-02-01T03:50:09;13.90;82.30
58519;DHT22;44310;48.106;12.008;2023-02-01T03:53:06;13.90;82.10
58519;DHT22;44310;48.106;12.008;2023-02-01T03:55:31;13.90;82.00
58519;DHT22;44310;48.106;12.008;2023-02-01T04:00:28;13.90;81.60
58519;DHT22;44310;48.106;12.008;2023-02-01T04:02:57;13.90;81.60
58519;DHT22;44310;48.106;12.008;2023-02-01T04:05:25;13.90;81.80
58519;DHT22;44310;48.106;12.008;2023-02-01T04:07:52;14.00;81.80
58519;DHT22;44310;48.106;12.008;2023-02-01T04:10:19;13.90;81.60
58519;DHT22;44310;48.106;12.008;2023-02-01T04:12:46;14.00;81.70
58519;DHT22;44310;48.106;12.008;2023-02-01T04:15:13;14.00;81.70
58519;DHT22;44310;48.106;12.008;2023-02-01T04:17:41;14.00;81.90
58519;DHT22;44310;48.106;12.008;2023-02-01T04:20:08;14.00;82.20
58519;DHT22;44310;48.106;12.008;2023-02-01T04:22:36;14.00;82.50
58519;DHT22;44310;48.106;12.008;2023-02-01T04:25:03;13.80;82.50
58519;DHT22;44310;48.106;12.008;2023-02-01T04:27:32;14.00;82.70
58519;DHT22;44310;48.106;12.008;2023-02-01T04:29:59;14.00;82.90
58519;DHT22;44310;48.106;12.008;2023-02-01T04:32:26;14.00;82.90
58519;DHT22;44310;48.106;12.008;2023-02-01T04:34:53;13.90;83.00
58519;DHT22;44310;48.106;12.008;2023-02-01T04:37:20;13.90;82.80
58519;DHT22;44310;48.106;12.008;2023-02-01T04:39:48;13.80;82.90
58519;DHT22;44310;48.106;12.008;2023-02-01T04:42:15;13.60;82.90
58519;DHT22;44310;48.106;12.008;2023-02-01T04:44:42;13.90;83.20
58519;DHT22;44310;48.106;12.008;2023-02-01T04:47:09;14.40;83.40
58519;DHT22;44310;48.106;12.008;2023-02-01T04:49:36;13.80;83.60
58519;DHT22;44310;48.106;12.008;2023-02-01T04:52:04;13.80;84.20
58519;DHT22;44310;48.106;12.008;2023-02-01T04:54:31;13.90;84.10
58519;DHT22;44310;48.106;12.008;2023-02-01T04:56:58;13.80;84.10
58519;DHT22;44310;48.106;12.008;2023-02-01T04:59:26;13.80;83.80
58519;DHT22;44310;48.106;12.008;2023-02-01T05:01:53;14.00;83.80
58519;DHT22;44310;48.106;12.008;2023-02-01T05:04:20;13.80;83.60
58519;DHT22;44310;48.106;12.008;2023-02-01T05:06:47;13.70;83.60
58519;DHT22;44310;48.106;12.008;2023-02-01T05:09:14;13.80;83.70
58519;DHT22;44310;48.106;12.008;2023-02-01T05:11:41;13.80;84.10
58519;DHT22;44310;48.106;12.008;2023-02-01T05:14:27;13.70;84.20
58519;DHT22;44310;48.106;12.008;2023-02-01T05:16:54;14.00;84.60
58519;DHT22;44310;48.106;12.008;2023-02-01T05:19:21;13.90;84.60
58519;DHT22;44310;48.106;12.008;2023-02-01T05:21:48;13.90;84.40
58519;DHT22;44310;48.106;12.008;2023-02-01T05:24:16;13.90;84.30
58519;DHT22;44310;48.106;12.008;2023-02-01T05:26:49;14.00;84.30
58519;DHT22;44310;48.106;12.008;2023-02-01T05:29:17;13.90;84.00
58519;DHT22;44310;48.106;12.008;2023-02-01T05:31:45;13.90;83.70
58519;DHT22;44310;48.106;12.008;2023-02-01T05:34:14;13.90;83.30
58519;DHT22;44310;48.106;12.008;2023-02-01T05:36:41;13.20;82.80
58519;DHT22;44310;48.106;12.008;2023-02-01T05:39:08;13.50;82.90
58519;DHT22;44310;48.106;12.008;2023-02-01T05:41:37;13.80;83.10
58519;DHT22;44310;48.106;12.008;2023-02-01T05:44:04;13.90;83.00
58519;DHT22;44310;48.106;12.008;2023-02-01T05:46:34;13.80;82.70
58519;DHT22;44310;48.106;12.008;2023-02-01T05:49:02;13.80;82.60
58519;DHT22;44310;48.106;12.008;2023-02-01T05:51:29;14.30;83.00
58519;DHT22;44310;48.106;12.008;2023-02-01T05:53:56;13.80;83.20
58519;DHT22;44310;48.106;12.008;2023-02-01T05:56:24;14.00;83.90
58519;DHT22;44310;48.106;12.008;2023-02-01T05:58:51;13.90;83.50
58519;DHT22;44310;48.106;12.008;2023-02-01T06:01:18;14.00;83.40
58519;DHT22;44310;48.106;12.008;2023-02-01T06:03:45;14.70;83.60
58519;DHT22;44310;48.106;12.008;2023-02-01T06:06:12;14.00;83.20
58519;DHT22;44310;48.106;12.008;2023-02-01T06:08:39;14.00;83.20
58519;DHT22;44310;48.106;12.008;2023-02-01T06:11:09;14.00;83.40
58519;DHT22;44310;48.106;12.008;2023-02-01T06:13:39;14.00;83.20
58519;DHT22;44310;48.106;12.008;2023-02-01T06:16:06;13.90;83.50
58519;DHT22;44310;48.106;12.008;2023-02-01T06:18:34;13.90;83.60
58519;DHT22;44310;48.106;12.008;2023-02-01T06:21:02;14.40;83.70
58519;DHT22;44310;48.106;12.008;2023-02-01T06:23:30;14.00;83.70
58519;DHT22;44310;48.106;12.008;2023-02-01T06:26:00;14.00;83.80
58519;DHT22;44310;48.106;12.008;2023-02-01T06:28:29;14.00;83.70
58519;DHT22;44310;48.106;12.008;2023-02-01T06:30:57;13.80;83.20
58519;DHT22;44310;48.106;12.008;2023-02-01T06:33:25;13.90;82.80
58519;DHT22;44310;48.106;12.008;2023-02-01T06:36:00;13.90;82.80
58519;DHT22;44310;48.106;12.008;2023-02-01T06:38:27;13.90;82.60
58519;DHT22;44310;48.106;12.008;2023-02-01T06:40:57;14.20;83.20
58519;DHT22;44310;48.106;12.008;2023-02-01T06:43:25;13.80;82.20
58519;DHT22;44310;48.106;12.008;2023-02-01T06:45:53;13.80;82.10
58519;DHT22;44310;48.106;12.008;2023-02-01T06:48:20;13.80;81.90
58519;DHT22;44310;48.106;12.008;2023-02-01T06:50:47;13.80;82.80
58519;DHT22;44310;48.106;12.008;2023-02-01T06:53:15;13.00;82.70
58519;DHT22;44310;48.106;12.008;2023-02-01T06:55:50;13.70;82.90
58519;DHT22;44310;48.106;12.008;2023-02-01T06:58:17;13.90;82.70
58519;DHT22;44310;48.106;12.008;2023-02-01T07:00:44;14.00;82.40
58519;DHT22;44310;48.106;12.008;2023-02-01T07:03:11;14.00;82.00
58519;DHT22;44310;48.106;12.008;2023-02-01T07:05:39;14.00;81.80
58519;DHT22;44310;48.106;12.008;2023-02-01T07:08:06;14.10;81.60
58519;DHT22;44310;48.106;12.008;2023-02-01T07:10:34;13.90;81.40
58519;DHT22;44310;48.106;12.008;2023-02-01T07:13:01;14.00;81.30
58519;DHT22;44310;48.106;12.008;2023-02-01T07:15:28;13.90;81.00
58519;DHT22;44310;48.106;12.008;2023-02-01T07:17:56;13.90;80.90
58519;DHT22;44310;48.106;12.008;2023-02-01T07:20:23;13.90;80.70
58519;DHT22;44310;48.106;12.008;2023-02-01T07:22:57;13.90;80.60
58519;DHT22;44310;48.106;12.008;2023-02-01T07:25:24;13.70;80.60
58519;DHT22;44310;48.106;12.008;2023-02-01T07:27:51;14.00;80.80
58519;DHT22;44310;48.106;12.008;2023-02-01T07:30:18;14.00;80.90
58519;DHT22;44310;48.106;12.008;2023-02-01T07:32:45;14.00;80.90
58519;DHT22;44310;48.106;12.008;2023-02-01T07:35:13;13.90;81.10
58519;DHT22;44310;48.106;12.008;2023-02-01T07:37:41;13.90;81.40
58519;DHT22;44310;48.106;12.008;2023-02-01T07:40:08;14.00;82.00
58519;DHT22;44310;48.106;12.008;2023-02-01T07:42:36;14.00;82.30
58519;DHT22;44310;48.106;12.008;2023-02-01T07:45:03;14.00;82.20
58519;DHT22;44310;48.106;12.008;2023-02-01T07:47:47;14.00;82.40
58519;DHT22;44310;48.106;12.008;2023-02-01T07:50:14;14.00;82.30
58519;DHT22;44310;48.106;12.008;2023-02-01T07:52:42;14.00;82.30
58519;DHT22;44310;48.106;12.008;2023-02-01T07:55:09;13.40;82.00
58519;DHT22;44310;48.106;12.008;2023-02-01T07:57:36;14.00;82.20
58519;DHT22;44310;48.106;12.008;2023-02-01T08:00:03;13.70;82.20
58519;DHT22;44310;48.106;12.008;2023-02-01T08:02:50;14.00;82.50
58519;DHT22;44310;48.106;12.008;2023-02-01T08:05:17;14.00;82.60
58519;DHT22;44310;48.106;12.008;2023-02-01T08:07:48;14.00;82.50
58519;DHT22;44310;48.106;12.008;2023-02-01T08:10:17;14.00;82.30
58519;DHT22;44310;48.106;12.008;2023-02-01T08:12:44;14.00;82.70
58519;DHT22;44310;48.106;12.008;2023-02-01T08:15:15;14.00;82.70
58519;DHT22;44310;48.106;12.008;2023-02-01T08:17:49;13.50;82.40
58519;DHT22;44310;48.106;12.008;2023-02-01T08:20:18;14.00;82.70
58519;DHT22;44310;48.106;12.008;2023-02-01T08:22:45;14.00;82.60
58519;DHT22;44310;48.106;12.008;2023-02-01T08:25:12;14.00;82.50
58519;DHT22;44310;48.106;12.008;2023-02-01T08:27:39;14.00;82.30
58519;DHT22;44310;48.106;12.008;2023-02-01T08:30:07;14.00;82.20
58519;DHT22;44310;48.106;12.008;2023-02-01T08:32:34;14.00;82.10
58519;DHT22;44310;48.106;12.008;2023-02-01T08:35:03;14.10;82.10
58519;DHT22;44310;48.106;12.008;2023-02-01T08:37:31;14.00;82.00
58519;DHT22;44310;48.106;12.008;2023-02-01T08:39:58;14.20;82.00
58519;DHT22;44310;48.106;12.008;2023-02-01T08:42:25;14.00;81.80
58519;DHT22;44310;48.106;12.008;2023-02-01T08:45:11;14.00;81.70
58519;DHT22;44310;48.106;12.008;2023-02-01T08:47:38;14.00;81.60
58519;DHT22;44310;48.106;12.008;2023-02-01T08:50:06;14.00;81.30
58519;DHT22;44310;48.106;12.008;2023-02-01T08:52:33;14.00;81.30
58519;DHT22;44310;48.106;12.008;2023-02-01T08:55:04;14.00;81.00
58519;DHT22;44310;48.106;12.008;2023-02-01T08:57:33;14.00;80.80
58519;DHT22;44310;48.106;12.008;2023-02-01T09:00:00;14.00;80.80
58519;DHT22;44310;48.106;12.008;2023-02-01T09:02:28;14.00;80.80
58519;DHT22;44310;48.106;12.008;2023-02-01T09:04:56;14.30;80.90
58519;DHT22;44310;48.106;12.008;2023-02-01T09:07:23;14.00;80.50
58519;DHT22;44310;48.106;12.008;2023-02-01T09:09:50;13.70;80.40
58519;DHT22;44310;48.106;12.008;2023-02-01T09:12:18;14.00;81.30
58519;DHT22;44310;48.106;12.008;2023-02-01T09:14:45;14.00;80.60
58519;DHT22;44310;48.106;12.008;2023-02-01T09:17:12;14.00;80.80
58519;DHT22;44310;48.106;12.008;2023-02-01T09:19:40;14.00;80.90
58519;DHT22;44310;48.106;12.008;2023-02-01T09:22:09;14.60;81.40
58519;DHT22;44310;48.106;12.008;2023-02-01T09:24:36;14.00;81.10
58519;DHT22;44310;48.106;12.008;2023-02-01T09:27:03;14.00;81.10
58519;DHT22;44310;48.106;12.008;2023-02-01T09:29:30;14.00;81.10
58519;DHT22;44310;48.106;12.008;2023-02-01T09:31:57;14.00;81.10
58519;DHT22;44310;48.106;12.008;2023-02-01T09:34:30;14.00;80.90
58519;DHT22;44310;48.106;12.008;2023-02-01T09:36:57;14.00;80.80
58519;DHT22;44310;48.106;12.008;2023-02-01T09:39:25;14.00;80.80
58519;DHT22;44310;48.106;12.008;2023-02-01T09:47:18;13.60;74.00
58519;DHT22;44310;48.106;12.008;2023-02-01T09:49:54;14.10;74.20
58519;DHT22;44310;48.106;12.008;2023-02-01T09:52:27;13.10;74.10
58519;DHT22;44310;48.106;12.008;2023-02-01T09:55:00;13.10;74.60
58519;DHT22;44310;48.106;12.008;2023-02-01T09:57:51;13.20;75.10
58519;DHT22;44310;48.106;12.008;2023-02-01T10:00:30;13.30;76.00
58519;DHT22;44310;48.106;12.008;2023-02-01T10:02:57;13.40;76.30
58519;DHT22;44310;48.106;12.008;2023-02-01T10:05:54;13.00;71.10
58519;DHT22;44310;48.106;12.008;2023-02-01T10:08:33;13.10;73.10
58519;DHT22;44310;48.106;12.008;2023-02-01T10:14:14;13.30;75.70
58519;DHT22;44310;48.106;12.008;2023-02-01T10:16:56;13.40;75.50
58519;DHT22;44310;48.106;12.008;2023-02-01T10:22:04;13.60;76.10
58519;DHT22;44310;48.106;12.008;2023-02-01T10:24:37;13.80;76.20
58519;DHT22;44310;48.106;12.008;2023-02-01T10:27:14;13.70;76.30
58519;DHT22;44310;48.106;12.008;2023-02-01T10:29:44;13.70;76.50
58519;DHT22;44310;48.106;12.008;2023-02-01T10:32:27;13.80;76.60
58519;DHT22;44310;48.106;12.008;2023-02-01T10:34:59;13.60;75.20
58519;DHT22;44310;48.106;12.008;2023-02-01T10:37:27;13.20;73.50
58519;DHT22;44310;48.106;12.008;2023-02-01T10:39:56;13.40;73.60
58519;DHT22;44310;48.106;12.008;2023-02-01T10:42:27;13.50;73.80
58519;DHT22;44310;48.106;12.008;2023-02-01T10:44:57;13.50;73.90
58519;DHT22;44310;48.106;12.008;2023-02-01T10:47:26;13.50;73.70
58519;DHT22;44310;48.106;12.008;2023-02-01T10:52:36;14.30;73.40
58519;DHT22;44310;48.106;12.008;2023-02-01T10:55:36;13.60;72.90
58519;DHT22;44310;48.106;12.008;2023-02-01T10:58:15;13.60;72.90
58519;DHT22;44310;48.106;12.008;2023-02-01T11:03:32;13.60;73.10
58519;DHT22;44310;48.106;12.008;2023-02-01T11:06:01;13.70;72.90
58519;DHT22;44310;48.106;12.008;2023-02-01T11:08:29;13.60;72.80
58519;DHT22;44310;48.106;12.008;2023-02-01T11:11:02;13.70;72.70
58519;DHT22;44310;48.106;12.008;2023-02-01T11:13:37;13.70;72.60
58519;DHT22;44310;48.106;12.008;2023-02-01T11:16:06;13.90;72.50
58519;DHT22;44310;48.106;12.008;2023-02-01T11:18:37;13.20;71.90
58519;DHT22;44310;48.106;12.008;2023-02-01T11:21:06;13.60;72.10
58519;DHT22;44310;48.106;12.008;2023-02-01T11:23:35;14.10;72.40
58519;DHT22;44310;48.106;12.008;2023-02-01T11:26:15;14.00;72.30
58519;DHT22;44310;48.106;12.008;2023-02-01T11:29:10;14.20;72.20
58519;DHT22;44310;48.106;12.008;2023-02-01T11:31:40;13.70;71.70
58519;DHT22;44310;48.106;12.008;2023-02-01T11:34:16;13.60;72.20
58519;DHT22;44310;48.106;12.008;2023-02-01T11:36:46;13.60;71.50
58519;DHT22;44310;48.106;12.008;2023-02-01T11:39:31;14.80;72.00
58519;DHT22;44310;48.106;12.008;2023-02-01T11:42:14;13.60;71.20
58519;DHT22;44310;48.106;12.008;2023-02-01T11:44:46;13.60;71.30
58519;DHT22;44310;48.106;12.008;2023-02-01T11:47:31;13.40;71.20
58519;DHT22;44310;48.106;12.008;2023-02-01T11:50:05;13.60;71.20
58519;DHT22;44310;48.106;12.008;2023-02-01T12:06:39;13.60;71.20
58519;DHT22;44310;48.106;12.008;2023-02-01T12:12:23;13.60;71.00
58519;DHT22;44310;48.106;12.008;2023-02-01T12:15:21;13.60;70.80
58519;DHT22;44310;48.106;12.008;2023-02-01T12:18:06;13.60;70.60
58519;DHT22;44310;48.106;12.008;2023-02-01T12:21:05;13.60;70.30
58519;DHT22;44310;48.106;12.008;2023-02-01T12:26:35;13.60;70.20
58519;DHT22;44310;48.106;12.008;2023-02-01T12:31:57;13.40;68.90
58519;DHT22;44310;48.106;12.008;2023-02-01T12:43:11;13.20;72.40
58519;DHT22;44310;48.106;12.008;2023-02-01T12:45:46;13.20;72.30
58519;DHT22;44310;48.106;12.008;2023-02-01T12:50:56;13.20;73.20
58519;DHT22;44310;48.106;12.008;2023-02-01T12:56:24;13.20;74.30
58519;DHT22;44310;48.106;12.008;2023-02-01T12:58:56;13.10;74.30
58519;DHT22;44310;48.106;12.008;2023-02-01T13:01:40;13.20;74.40
58519;DHT22;44310;48.106;12.008;2023-02-01T13:04:24;12.40;74.40
58519;DHT22;44310;48.106;12.008;2023-02-01T13:07:14;13.20;75.50
58519;DHT22;44310;48.106;12.008;2023-02-01T13:09:59;13.20;75.00
58519;DHT22;44310;48.106;12.008;2023-02-01T13:12:38;13.10;75.10
58519;DHT22;44310;48.106;12.008;2023-02-01T13:15:26;13.00;75.50
58519;DHT22;44310;48.106;12.008;2023-02-01T13:17:57;13.20;76.40
58519;DHT22;44310;48.106;12.008;2023-02-01T13:23:30;13.20;76.60
58519;DHT22;44310;48.106;12.008;2023-02-01T13:25:58;13.20;76.60
58519;DHT22;44310;48.106;12.008;2023-02-01T13:28:40;13.20;76.40
58519;DHT22;44310;48.106;12.008;2023-02-01T13:36:53;13.20;76.50
58519;DHT22;44310;48.106;12.008;2023-02-01T13:42:19;13.10;76.40
58519;DHT22;44310;48.106;12.008;2023-02-01T13:44:56;13.10;76.30
58519;DHT22;44310;48.106;12.008;2023-02-01T13:47:33;13.10;76.50
58519;DHT22;44310;48.106;12.008;2023-02-01T13:52:45;13.10;76.50
58519;DHT22;44310;48.106;12.008;2023-02-01T13:57:49;13.20;76.50
58519;DHT22;44310;48.106;12.008;2023-02-01T14:10:54;13.10;76.30
58519;DHT22;44310;48.106;12.008;2023-02-01T14:13:32;13.10;76.10
58519;DHT22;44310;48.106;12.008;2023-02-01T14:21:23;13.10;76.10
58519;DHT22;44310;48.106;12.008;2023-02-01T14:32:16;13.20;74.80
58519;DHT22;44310;48.106;12.008;2023-02-01T14:39:54;13.20;72.70
58519;DHT22;44310;48.106;12.008;2023-02-01T14:44:54;13.10;71.60
58519;DHT22;44310;48.106;12.008;2023-02-01T14:47:28;13.30;71.90
58519;DHT22;44310;48.106;12.008;2023-02-01T14:50:03;13.40;71.70
58519;DHT22;44310;48.106;12.008;2023-02-01T14:52:36;13.40;71.70
58519;DHT22;44310;48.106;12.008;2023-02-01T14:55:29;13.40;71.60
58519;DHT22;44310;48.106;12.008;2023-02-01T14:57:58;13.40;72.40
58519;DHT22;44310;48.106;12.008;2023-02-01T15:00:29;13.40;72.30
58519;DHT22;44310;48.106;12.008;2023-02-01T15:05:42;13.30;72.60
58519;DHT22;44310;48.106;12.008;2023-02-01T15:08:22;13.30;73.60
58519;DHT22;44310;48.106;12.008;2023-02-01T15:10:52;12.60;73.90
58519;DHT22;44310;48.106;12.008;2023-02-01T15:13:23;13.30;75.20
58519;DHT22;44310;48.106;12.008;2023-02-01T15:16:04;13.30;75.10
58519;DHT22;44310;48.106;12.008;2023-02-01T15:18:33;13.30;75.00
58519;DHT22;44310;48.106;12.008;2023-02-01T15:21:01;13.30;75.20
58519;DHT22;44310;48.106;12.008;2023-02-01T15:23:49;13.30;75.10
58519;DHT22;44310;48.106;12.008;2023-02-01T15:26:31;13.20;75.20
58519;DHT22;44310;48.106;12.008;2023-02-01T15:28:58;13.20;75.30
58519;DHT22;44310;48.106;12.008;2023-02-01T15:31:38;13.20;75.50
58519;DHT22;44310;48.106;12.008;2023-02-01T15:34:06;13.20;75.50
58519;DHT22;44310;48.106;12.008;2023-02-01T15:36:33;13.20;75.80
58519;DHT22;44310;48.106;12.008;2023-02-01T15:39:16;13.20;76.20
58519;DHT22;44310;48.106;12.008;2023-02-01T15:42:10;13.20;75.60
58519;DHT22;44310;48.106;12.008;2023-02-01T15:44:40;13.20;75.50
58519;DHT22;44310;48.106;12.008;2023-02-01T15:47:20;13.20;75.10
58519;DHT22;44310;48.106;12.008;2023-02-01T15:49:56;13.20;75.20
58519;DHT22;44310;48.106;12.008;2023-02-01T15:52:36;13.00;75.00
58519;DHT22;44310;48.106;12.008;2023-02-01T15:55:07;13.20;75.00
58519;DHT22;44310;48.106;12.008;2023-02-01T15:57:39;13.20;75.10
58519;DHT22;44310;48.106;12.008;2023-02-01T16:00:24;13.70;75.30
58519;DHT22;44310;48.106;12.008;2023-02-01T16:02:57;13.10;75.30
58519;DHT22;44310;48.106;12.008;2023-02-01T16:05:42;13.10;75.70
58519;DHT22;44310;48.106;12.008;2023-02-01T16:08:17;13.80;76.20
58519;DHT22;44310;48.106;12.008;2023-02-01T16:10:46;13.20;76.20
58519;DHT22;44310;48.106;12.008;2023-02-01T16:13:15;13.30;76.10
58519;DHT22;44310;48.106;12.008;2023-02-01T16:15:43;13.10;75.70
58519;DHT22;44310;48.106;12.008;2023-02-01T16:18:11;12.90;75.80
58519;DHT22;44310;48.106;12.008;2023-02-01T16:20:40;13.10;75.70
58519;DHT22;44310;48.106;12.008;2023-02-01T16:23:09;13.10;75.50
58519;DHT22;44310;48.106;12.008;2023-02-01T16:25:37;13.10;74.40
58519;DHT22;44310;48.106;12.008;2023-02-01T16:28:04;13.00;73.90
58519;DHT22;44310;48.106;12.008;2023-02-01T16:30:32;13.00;73.40
58519;DHT22;44310;48.106;12.008;2023-02-01T16:33:01;13.10;73.00
58519;DHT22;44310;48.106;12.008;2023-02-01T16:35:36;13.10;73.40
58519;DHT22;44310;48.106;12.008;2023-02-01T16:38:12;13.20;74.00
58519;DHT22;44310;48.106;12.008;2023-02-01T16:40:41;13.30;74.20
58519;DHT22;44310;48.106;12.008;2023-02-01T16:43:23;13.40;74.80
58519;DHT22;44310;48.106;12.008;2023-02-01T16:45:52;13.50;75.60
58519;DHT22;44310;48.106;12.008;2023-02-01T16:48:35;13.50;76.50
58519;DHT22;44310;48.106;12.008;2023-02-01T16:51:12;13.60;77.20
58519;DHT22;44310;48.106;12.008;2023-02-01T16:53:40;13.60;77.60
58519;DHT22;44310;48.106;12.008;2023-02-01T16:56:22;13.70;77.90
58519;DHT22;44310;48.106;12.008;2023-02-01T16:58:50;13.70;78.20
58519;DHT22;44310;48.106;12.008;2023-02-01T17:01:18;13.00;78.00
58519;DHT22;44310;48.106;12.008;2023-02-01T17:03:46;13.70;78.60
58519;DHT22;44310;48.106;12.008;2023-02-01T17:06:19;13.70;78.60
58519;DHT22;44310;48.106;12.008;2023-02-01T17:08:52;13.80;78.80
58519;DHT22;44310;48.106;12.008;2023-02-01T17:11:20;13.70;78.70
58519;DHT22;44310;48.106;12.008;2023-02-01T17:13:47;13.70;78.70
58519;DHT22;44310;48.106;12.008;2023-02-01T17:18:58;13.70;79.20
58519;DHT22;44310;48.106;12.008;2023-02-01T17:21:29;13.70;79.10
58519;DHT22;44310;48.106;12.008;2023-02-01T17:23:56;13.70;79.10
58519;DHT22;44310;48.106;12.008;2023-02-01T17:26:25;13.70;79.20
58519;DHT22;44310;48.106;12.008;2023-02-01T17:28:53;13.70;79.30
58519;DHT22;44310;48.106;12.008;2023-02-01T17:31:20;13.80;79.40
58519;DHT22;44310;48.106;12.008;2023-02-01T17:33:47;13.80;79.70
58519;DHT22;44310;48.106;12.008;2023-02-01T17:36:16;13.80;79.80
58519;DHT22;44310;48.106;12.008;2023-02-01T17:38:43;13.80;79.80
58519;DHT22;44310;48.106;12.008;2023-02-01T17:41:19;13.80;79.90
58519;DHT22;44310;48.106;12.008;2023-02-01T17:43:48;13.80;79.90
58519;DHT22;44310;48.106;12.008;2023-02-01T17:46:16;13.80;79.80
58519;DHT22;44310;48.106;12.008;2023-02-01T17:48:53;14.20;80.10
58519;DHT22;44310;48.106;12.008;2023-02-01T17:51:23;13.80;79.90
58519;DHT22;44310;48.106;12.008;2023-02-01T17:53:51;13.80;79.70
58519;DHT22;44310;48.106;12.008;2023-02-01T17:56:23;13.80;79.70
58519;DHT22;44310;48.106;12.008;2023-02-01T17:58:51;13.80;79.80
58519;DHT22;44310;48.106;12.008;2023-02-01T18:01:20;13.90;79.60